sensor_id;sensor_type;location;lat;lon;timestamp;P1;durP1;ratioP1;P2;durP2;ratioP2
3771;SDS011;1901;48.172;12.824;2022-10-31T00:01:51;20.87;;;13.87;;
3771;SDS011;1901;48.172;12.824;2022-10-31T00:04:18;20.23;;;14.37;;
3771;SDS011;1901;48.172;12.824;2022-10-31T00:06:46;25.43;;;13.97;;
3771;SDS011;1901;48.172;12.824;2022-10-31T00:09:13;22.13;;;13.87;;
3771;SDS011;1901;48.172;12.824;2022-10-31T00:11:40;36.53;;;14.33;;
3771;SDS011;1901;48.172;12.824;2022-10-31T00:14:07;27.97;;;12.93;;
3771;SDS011;1901;48.172;12.824;2022-10-31T00:16:36;17.20;;;11.90;;
3771;SDS011;1901;48.172;12.824;2022-10-31T00:19:04;20.20;;;12.87;;
3771;SDS011;1901;48.172;12.824;2022-10-31T00:21:32;24.80;;;13.50;;
3771;SDS011;1901;48.172;12.824;2022-10-31T00:24:00;21.27;;;12.33;;
3771;SDS011;1901;48.172;12.824;2022-10-31T00:26:27;18.60;;;11.80;;
3771;SDS011;1901;48.172;12.824;2022-10-31T00:28:54;22.47;;;13.83;;
3771;SDS011;1901;48.172;12.824;2022-10-31T00:31:21;25.70;;;12.93;;
3771;SDS011;1901;48.172;12.824;2022-10-31T00:33:50;25.50;;;13.63;;
3771;SDS011;1901;48.172;12.824;2022-10-31T00:36:18;19.07;;;13.23;;
3771;SDS011;1901;48.172;12.824;2022-10-31T00:38:45;20.20;;;13.90;;
3771;SDS011;1901;48.172;12.824;2022-10-31T00:41:13;24.23;;;13.67;;
3771;SDS011;1901;48.172;12.824;2022-10-31T00:43:41;19.27;;;12.80;;
3771;SDS011;1901;48.172;12.824;2022-10-31T00:46:08;36.13;;;14.57;;
3771;SDS011;1901;48.172;12.824;2022-10-31T00:48:36;23.70;;;12.37;;
3771;SDS011;1901;48.172;12.824;2022-10-31T00:51:04;15.47;;;11.87;;
3771;SDS011;1901;48.172;12.824;2022-10-31T00:53:31;31.13;;;12.47;;
3771;SDS011;1901;48.172;12.824;2022-10-31T00:55:59;20.70;;;11.87;;
3771;SDS011;1901;48.172;12.824;2022-10-31T00:58:26;27.27;;;12.63;;
3771;SDS011;1901;48.172;12.824;2022-10-31T01:00:53;19.00;;;12.00;;
3771;SDS011;1901;48.172;12.824;2022-10-31T01:03:21;22.77;;;13.53;;
3771;SDS011;1901;48.172;12.824;2022-10-31T01:05:55;18.43;;;12.07;;
3771;SDS011;1901;48.172;12.824;2022-10-31T01:08:24;19.23;;;12.90;;
3771;SDS011;1901;48.172;12.824;2022-10-31T01:11:01;22.70;;;12.50;;
3771;SDS011;1901;48.172;12.824;2022-10-31T01:13:28;21.80;;;15.20;;
3771;SDS011;1901;48.172;12.824;2022-10-31T01:15:56;22.53;;;12.70;;
3771;SDS011;1901;48.172;12.824;2022-10-31T01:18:23;17.97;;;13.93;;
3771;SDS011;1901;48.172;12.824;2022-10-31T01:20:56;19.23;;;11.27;;
3771;SDS011;1901;48.172;12.824;2022-10-31T01:23:25;15.87;;;10.67;;
3771;SDS011;1901;48.172;12.824;2022-10-31T01:25:58;19.53;;;11.00;;
3771;SDS011;1901;48.172;12.824;2022-10-31T01:28:26;17.67;;;10.60;;
3771;SDS011;1901;48.172;12.824;2022-10-31T01:30:53;23.53;;;12.03;;
3771;SDS011;1901;48.172;12.824;2022-10-31T01:33:20;20.37;;;11.50;;
3771;SDS011;1901;48.172;12.824;2022-10-31T01:35:47;19.30;;;10.50;;
3771;SDS011;1901;48.172;12.824;2022-10-31T01:38:14;18.90;;;10.87;;
3771;SDS011;1901;48.172;12.824;2022-10-31T01:40:43;13.37;;;10.03;;
3771;SDS011;1901;48.172;12.824;2022-10-31T01:43:11;10.97;;;9.03;;
3771;SDS011;1901;48.172;12.824;2022-10-31T01:45:38;15.30;;;10.47;;
3771;SDS011;1901;48.172;12.824;2022-10-31T01:48:06;12.47;;;8.67;;
3771;SDS011;1901;48.172;12.824;2022-10-31T01:50:39;13.77;;;9.67;;
3771;SDS011;1901;48.172;12.824;2022-10-31T01:53:06;10.27;;;9.17;;
3771;SDS011;1901;48.172;12.824;2022-10-31T01:55:35;11.97;;;9.70;;
3771;SDS011;1901;48.172;12.824;2022-10-31T01:58:07;19.43;;;9.43;;
3771;SDS011;1901;48.172;12.824;2022-10-31T02:00:35;28.83;;;9.57;;
3771;SDS011;1901;48.172;12.824;2022-10-31T02:03:03;15.03;;;9.00;;
3771;SDS011;1901;48.172;12.824;2022-10-31T02:05:30;16.17;;;10.17;;
3771;SDS011;1901;48.172;12.824;2022-10-31T02:07:58;10.93;;;8.50;;
3771;SDS011;1901;48.172;12.824;2022-10-31T02:10:26;17.07;;;8.90;;
3771;SDS011;1901;48.172;12.824;2022-10-31T02:12:55;20.67;;;9.90;;
3771;SDS011;1901;48.172;12.824;2022-10-31T02:15:25;12.50;;;8.83;;
3771;SDS011;1901;48.172;12.824;2022-10-31T02:17:52;14.90;;;9.83;;
3771;SDS011;1901;48.172;12.824;2022-10-31T02:20:20;15.43;;;9.27;;
3771;SDS011;1901;48.172;12.824;2022-10-31T02:22:52;17.73;;;9.43;;
3771;SDS011;1901;48.172;12.824;2022-10-31T02:25:31;13.33;;;10.97;;
3771;SDS011;1901;48.172;12.824;2022-10-31T02:28:09;15.40;;;10.90;;
3771;SDS011;1901;48.172;12.824;2022-10-31T02:33:14;12.60;;;8.90;;
3771;SDS011;1901;48.172;12.824;2022-10-31T02:35:47;13.47;;;9.03;;
3771;SDS011;1901;48.172;12.824;2022-10-31T02:38:20;13.10;;;10.20;;
3771;SDS011;1901;48.172;12.824;2022-10-31T02:40:51;13.70;;;10.30;;
3771;SDS011;1901;48.172;12.824;2022-10-31T02:43:20;16.07;;;10.57;;
3771;SDS011;1901;48.172;12.824;2022-10-31T02:45:48;12.03;;;9.40;;
3771;SDS011;1901;48.172;12.824;2022-10-31T02:48:18;13.90;;;9.17;;
3771;SDS011;1901;48.172;12.824;2022-10-31T02:50:48;12.03;;;8.30;;
3771;SDS011;1901;48.172;12.824;2022-10-31T02:53:16;12.00;;;8.13;;
3771;SDS011;1901;48.172;12.824;2022-10-31T02:55:47;12.60;;;9.43;;
3771;SDS011;1901;48.172;12.824;2022-10-31T02:58:17;10.80;;;9.13;;
3771;SDS011;1901;48.172;12.824;2022-10-31T03:00:48;17.70;;;9.10;;
3771;SDS011;1901;48.172;12.824;2022-10-31T03:03:19;17.30;;;9.87;;
3771;SDS011;1901;48.172;12.824;2022-10-31T03:05:51;20.87;;;9.60;;
3771;SDS011;1901;48.172;12.824;2022-10-31T03:08:22;9.53;;;7.30;;
3771;SDS011;1901;48.172;12.824;2022-10-31T03:10:52;10.50;;;7.70;;
3771;SDS011;1901;48.172;12.824;2022-10-31T03:13:21;10.20;;;8.03;;
3771;SDS011;1901;48.172;12.824;2022-10-31T03:15:51;22.77;;;9.53;;
3771;SDS011;1901;48.172;12.824;2022-10-31T03:18:21;10.40;;;8.97;;
3771;SDS011;1901;48.172;12.824;2022-10-31T03:20:51;13.83;;;9.00;;
3771;SDS011;1901;48.172;12.824;2022-10-31T03:23:20;21.53;;;10.03;;
3771;SDS011;1901;48.172;12.824;2022-10-31T03:25:49;10.50;;;8.20;;
3771;SDS011;1901;48.172;12.824;2022-10-31T03:28:18;13.13;;;9.20;;
3771;SDS011;1901;48.172;12.824;2022-10-31T03:30:48;12.53;;;8.47;;
3771;SDS011;1901;48.172;12.824;2022-10-31T03:33:17;11.60;;;9.57;;
3771;SDS011;1901;48.172;12.824;2022-10-31T03:35:50;13.57;;;9.97;;
3771;SDS011;1901;48.172;12.824;2022-10-31T03:38:18;12.97;;;10.80;;
3771;SDS011;1901;48.172;12.824;2022-10-31T03:40:46;12.57;;;8.60;;
3771;SDS011;1901;48.172;12.824;2022-10-31T03:43:15;9.87;;;8.17;;
3771;SDS011;1901;48.172;12.824;2022-10-31T03:45:44;11.67;;;8.40;;
3771;SDS011;1901;48.172;12.824;2022-10-31T03:48:12;12.93;;;7.77;;
3771;SDS011;1901;48.172;12.824;2022-10-31T03:50:41;19.17;;;9.83;;
3771;SDS011;1901;48.172;12.824;2022-10-31T03:53:11;13.07;;;8.83;;
3771;SDS011;1901;48.172;12.824;2022-10-31T03:55:40;10.60;;;8.27;;
3771;SDS011;1901;48.172;12.824;2022-10-31T03:58:09;11.23;;;9.00;;
3771;SDS011;1901;48.172;12.824;2022-10-31T04:00:37;9.83;;;8.67;;
3771;SDS011;1901;48.172;12.824;2022-10-31T04:03:06;10.27;;;7.57;;
3771;SDS011;1901;48.172;12.824;2022-10-31T04:05:34;14.07;;;8.97;;
3771;SDS011;1901;48.172;12.824;2022-10-31T04:08:02;9.53;;;7.87;;
3771;SDS011;1901;48.172;12.824;2022-10-31T04:10:31;13.10;;;8.53;;
3771;SDS011;1901;48.172;12.824;2022-10-31T04:13:01;10.00;;;7.33;;
3771;SDS011;1901;48.172;12.824;2022-10-31T04:15:29;9.70;;;8.00;;
3771;SDS011;1901;48.172;12.824;2022-10-31T04:17:57;15.23;;;8.17;;
3771;SDS011;1901;48.172;12.824;2022-10-31T04:20:29;10.60;;;8.13;;
3771;SDS011;1901;48.172;12.824;2022-10-31T04:22:56;12.77;;;7.33;;
3771;SDS011;1901;48.172;12.824;2022-10-31T04:25:23;9.50;;;8.50;;
3771;SDS011;1901;48.172;12.824;2022-10-31T04:27:52;16.33;;;8.17;;
3771;SDS011;1901;48.172;12.824;2022-10-31T04:30:19;14.80;;;7.80;;
3771;SDS011;1901;48.172;12.824;2022-10-31T04:32:46;10.63;;;8.43;;
3771;SDS011;1901;48.172;12.824;2022-10-31T04:35:13;15.13;;;8.03;;
3771;SDS011;1901;48.172;12.824;2022-10-31T04:37:41;11.80;;;8.07;;
3771;SDS011;1901;48.172;12.824;2022-10-31T04:40:08;15.93;;;10.17;;
3771;SDS011;1901;48.172;12.824;2022-10-31T04:42:36;12.90;;;9.87;;
3771;SDS011;1901;48.172;12.824;2022-10-31T04:45:05;12.80;;;9.30;;
3771;SDS011;1901;48.172;12.824;2022-10-31T04:47:32;12.80;;;9.33;;
3771;SDS011;1901;48.172;12.824;2022-10-31T04:49:59;18.27;;;9.93;;
3771;SDS011;1901;48.172;12.824;2022-10-31T04:52:27;11.33;;;9.40;;
3771;SDS011;1901;48.172;12.824;2022-10-31T04:54:54;15.10;;;9.80;;
3771;SDS011;1901;48.172;12.824;2022-10-31T04:57:21;10.80;;;9.70;;
3771;SDS011;1901;48.172;12.824;2022-10-31T04:59:48;15.97;;;9.93;;
3771;SDS011;1901;48.172;12.824;2022-10-31T05:02:17;13.67;;;8.90;;
3771;SDS011;1901;48.172;12.824;2022-10-31T05:04:44;12.90;;;8.40;;
3771;SDS011;1901;48.172;12.824;2022-10-31T05:07:11;12.43;;;8.10;;
3771;SDS011;1901;48.172;12.824;2022-10-31T05:09:38;9.23;;;8.20;;
3771;SDS011;1901;48.172;12.824;2022-10-31T05:12:05;8.93;;;8.00;;
3771;SDS011;1901;48.172;12.824;2022-10-31T05:14:32;17.97;;;8.47;;
3771;SDS011;1901;48.172;12.824;2022-10-31T05:16:59;14.43;;;8.90;;
3771;SDS011;1901;48.172;12.824;2022-10-31T05:19:28;11.50;;;8.40;;
3771;SDS011;1901;48.172;12.824;2022-10-31T05:21:55;10.73;;;8.17;;
3771;SDS011;1901;48.172;12.824;2022-10-31T05:24:22;12.53;;;8.97;;
3771;SDS011;1901;48.172;12.824;2022-10-31T05:26:49;10.33;;;8.97;;
3771;SDS011;1901;48.172;12.824;2022-10-31T05:29:17;13.83;;;8.83;;
3771;SDS011;1901;48.172;12.824;2022-10-31T05:31:44;13.43;;;10.47;;
3771;SDS011;1901;48.172;12.824;2022-10-31T05:34:11;12.43;;;9.07;;
3771;SDS011;1901;48.172;12.824;2022-10-31T05:36:39;22.17;;;8.83;;
3771;SDS011;1901;48.172;12.824;2022-10-31T05:39:06;14.20;;;8.77;;
3771;SDS011;1901;48.172;12.824;2022-10-31T05:41:34;13.00;;;8.70;;
3771;SDS011;1901;48.172;12.824;2022-10-31T05:44:01;15.37;;;8.70;;
3771;SDS011;1901;48.172;12.824;2022-10-31T05:46:28;13.30;;;10.37;;
3771;SDS011;1901;48.172;12.824;2022-10-31T05:48:55;14.63;;;8.80;;
3771;SDS011;1901;48.172;12.824;2022-10-31T05:51:22;13.60;;;9.40;;
3771;SDS011;1901;48.172;12.824;2022-10-31T05:53:51;14.00;;;10.50;;
3771;SDS011;1901;48.172;12.824;2022-10-31T05:56:18;17.37;;;10.00;;
3771;SDS011;1901;48.172;12.824;2022-10-31T05:58:45;14.30;;;9.23;;
3771;SDS011;1901;48.172;12.824;2022-10-31T06:01:12;14.20;;;9.60;;
3771;SDS011;1901;48.172;12.824;2022-10-31T06:03:40;17.27;;;10.40;;
3771;SDS011;1901;48.172;12.824;2022-10-31T06:06:07;13.40;;;9.03;;
3771;SDS011;1901;48.172;12.824;2022-10-31T06:08:34;11.23;;;8.83;;
3771;SDS011;1901;48.172;12.824;2022-10-31T06:11:02;9.57;;;7.30;;
3771;SDS011;1901;48.172;12.824;2022-10-31T06:13:29;10.77;;;8.20;;
3771;SDS011;1901;48.172;12.824;2022-10-31T06:15:57;9.50;;;7.97;;
3771;SDS011;1901;48.172;12.824;2022-10-31T06:18:24;11.30;;;8.60;;
3771;SDS011;1901;48.172;12.824;2022-10-31T06:20:51;12.37;;;8.30;;
3771;SDS011;1901;48.172;12.824;2022-10-31T06:23:18;11.77;;;9.10;;
3771;SDS011;1901;48.172;12.824;2022-10-31T06:25:48;14.13;;;8.27;;
3771;SDS011;1901;48.172;12.824;2022-10-31T06:28:16;17.53;;;10.03;;
3771;SDS011;1901;48.172;12.824;2022-10-31T06:30:44;14.93;;;9.43;;
3771;SDS011;1901;48.172;12.824;2022-10-31T06:33:12;15.63;;;10.80;;
3771;SDS011;1901;48.172;12.824;2022-10-31T06:35:44;12.83;;;10.20;;
3771;SDS011;1901;48.172;12.824;2022-10-31T06:38:11;11.47;;;9.67;;
3771;SDS011;1901;48.172;12.824;2022-10-31T06:40:38;12.83;;;7.93;;
3771;SDS011;1901;48.172;12.824;2022-10-31T06:43:05;21.83;;;10.07;;
3771;SDS011;1901;48.172;12.824;2022-10-31T06:45:34;79.37;;;33.80;;
3771;SDS011;1901;48.172;12.824;2022-10-31T06:48:01;49.30;;;23.27;;
3771;SDS011;1901;48.172;12.824;2022-10-31T06:50:28;24.40;;;13.53;;
3771;SDS011;1901;48.172;12.824;2022-10-31T06:52:55;17.77;;;11.00;;
3771;SDS011;1901;48.172;12.824;2022-10-31T06:55:23;12.47;;;8.97;;
3771;SDS011;1901;48.172;12.824;2022-10-31T06:57:50;15.23;;;8.93;;
3771;SDS011;1901;48.172;12.824;2022-10-31T07:00:18;14.13;;;9.90;;
3771;SDS011;1901;48.172;12.824;2022-10-31T07:02:53;8.80;;;7.27;;
3771;SDS011;1901;48.172;12.824;2022-10-31T07:05:21;8.37;;;7.43;;
3771;SDS011;1901;48.172;12.824;2022-10-31T07:07:51;10.17;;;7.10;;
3771;SDS011;1901;48.172;12.824;2022-10-31T07:10:18;13.03;;;7.33;;
3771;SDS011;1901;48.172;12.824;2022-10-31T07:12:45;9.73;;;6.60;;
3771;SDS011;1901;48.172;12.824;2022-10-31T07:15:13;10.70;;;6.77;;
3771;SDS011;1901;48.172;12.824;2022-10-31T07:17:40;7.73;;;5.80;;
3771;SDS011;1901;48.172;12.824;2022-10-31T07:20:09;4.77;;;4.10;;
3771;SDS011;1901;48.172;12.824;2022-10-31T07:22:36;4.70;;;4.00;;
3771;SDS011;1901;48.172;12.824;2022-10-31T07:25:04;7.07;;;4.37;;
3771;SDS011;1901;48.172;12.824;2022-10-31T07:27:34;5.23;;;4.73;;
3771;SDS011;1901;48.172;12.824;2022-10-31T07:30:02;4.83;;;4.20;;
3771;SDS011;1901;48.172;12.824;2022-10-31T07:32:36;5.40;;;4.23;;
3771;SDS011;1901;48.172;12.824;2022-10-31T07:35:03;5.13;;;4.17;;
3771;SDS011;1901;48.172;12.824;2022-10-31T07:37:32;5.70;;;4.77;;
3771;SDS011;1901;48.172;12.824;2022-10-31T07:39:59;5.40;;;4.57;;
3771;SDS011;1901;48.172;12.824;2022-10-31T07:42:27;9.00;;;4.80;;
3771;SDS011;1901;48.172;12.824;2022-10-31T07:44:54;7.13;;;5.20;;
3771;SDS011;1901;48.172;12.824;2022-10-31T07:47:21;6.17;;;4.70;;
3771;SDS011;1901;48.172;12.824;2022-10-31T07:49:48;9.87;;;5.77;;
3771;SDS011;1901;48.172;12.824;2022-10-31T07:52:15;6.03;;;4.90;;
3771;SDS011;1901;48.172;12.824;2022-10-31T07:54:44;7.70;;;5.10;;
3771;SDS011;1901;48.172;12.824;2022-10-31T07:57:11;13.60;;;5.60;;
3771;SDS011;1901;48.172;12.824;2022-10-31T07:59:38;5.70;;;5.00;;
3771;SDS011;1901;48.172;12.824;2022-10-31T08:02:07;11.03;;;5.87;;
3771;SDS011;1901;48.172;12.824;2022-10-31T08:04:34;6.13;;;4.17;;
3771;SDS011;1901;48.172;12.824;2022-10-31T08:07:01;5.10;;;4.60;;
3771;SDS011;1901;48.172;12.824;2022-10-31T08:09:28;7.30;;;4.40;;
3771;SDS011;1901;48.172;12.824;2022-10-31T08:11:57;8.07;;;4.63;;
3771;SDS011;1901;48.172;12.824;2022-10-31T08:14:24;4.57;;;4.20;;
3771;SDS011;1901;48.172;12.824;2022-10-31T08:16:51;7.87;;;5.30;;
3771;SDS011;1901;48.172;12.824;2022-10-31T08:19:19;6.33;;;4.80;;
3771;SDS011;1901;48.172;12.824;2022-10-31T08:21:46;7.37;;;5.70;;
3771;SDS011;1901;48.172;12.824;2022-10-31T08:24:17;14.37;;;5.40;;
3771;SDS011;1901;48.172;12.824;2022-10-31T08:26:44;14.43;;;5.90;;
3771;SDS011;1901;48.172;12.824;2022-10-31T08:29:12;11.23;;;5.93;;
3771;SDS011;1901;48.172;12.824;2022-10-31T08:31:40;7.13;;;5.70;;
3771;SDS011;1901;48.172;12.824;2022-10-31T08:34:07;7.70;;;5.57;;
3771;SDS011;1901;48.172;12.824;2022-10-31T08:36:35;12.50;;;5.30;;
3771;SDS011;1901;48.172;12.824;2022-10-31T08:39:02;10.67;;;5.40;;
3771;SDS011;1901;48.172;12.824;2022-10-31T08:41:29;6.87;;;4.80;;
3771;SDS011;1901;48.172;12.824;2022-10-31T08:43:57;10.90;;;4.73;;
3771;SDS011;1901;48.172;12.824;2022-10-31T08:46:29;8.00;;;4.60;;
3771;SDS011;1901;48.172;12.824;2022-10-31T08:48:56;6.33;;;4.10;;
3771;SDS011;1901;48.172;12.824;2022-10-31T08:51:24;7.10;;;4.90;;
3771;SDS011;1901;48.172;12.824;2022-10-31T08:53:51;7.70;;;4.30;;
3771;SDS011;1901;48.172;12.824;2022-10-31T08:56:18;8.20;;;4.37;;
3771;SDS011;1901;48.172;12.824;2022-10-31T08:58:47;9.57;;;4.47;;
3771;SDS011;1901;48.172;12.824;2022-10-31T09:01:16;6.23;;;4.47;;
3771;SDS011;1901;48.172;12.824;2022-10-31T09:03:44;6.20;;;4.77;;
3771;SDS011;1901;48.172;12.824;2022-10-31T09:06:11;6.40;;;4.13;;
3771;SDS011;1901;48.172;12.824;2022-10-31T09:08:38;7.77;;;4.80;;
3771;SDS011;1901;48.172;12.824;2022-10-31T09:11:05;9.47;;;4.63;;
3771;SDS011;1901;48.172;12.824;2022-10-31T09:13:33;9.10;;;5.00;;
3771;SDS011;1901;48.172;12.824;2022-10-31T09:16:00;15.70;;;4.87;;
3771;SDS011;1901;48.172;12.824;2022-10-31T09:18:27;7.60;;;5.37;;
3771;SDS011;1901;48.172;12.824;2022-10-31T09:20:57;7.90;;;4.70;;
3771;SDS011;1901;48.172;12.824;2022-10-31T09:23:24;9.67;;;5.70;;
3771;SDS011;1901;48.172;12.824;2022-10-31T09:25:52;9.40;;;5.53;;
3771;SDS011;1901;48.172;12.824;2022-10-31T09:28:20;11.83;;;5.57;;
3771;SDS011;1901;48.172;12.824;2022-10-31T09:30:48;13.30;;;5.73;;
3771;SDS011;1901;48.172;12.824;2022-10-31T09:33:15;8.30;;;5.80;;
3771;SDS011;1901;48.172;12.824;2022-10-31T09:35:43;19.10;;;5.63;;
3771;SDS011;1901;48.172;12.824;2022-10-31T09:38:12;27.53;;;7.03;;
3771;SDS011;1901;48.172;12.824;2022-10-31T09:40:40;12.80;;;6.47;;
3771;SDS011;1901;48.172;12.824;2022-10-31T09:43:11;11.67;;;7.10;;
3771;SDS011;1901;48.172;12.824;2022-10-31T09:45:41;9.70;;;6.00;;
3771;SDS011;1901;48.172;12.824;2022-10-31T09:48:17;13.50;;;6.00;;
3771;SDS011;1901;48.172;12.824;2022-10-31T09:50:48;8.93;;;5.47;;
3771;SDS011;1901;48.172;12.824;2022-10-31T09:53:22;11.67;;;5.40;;
3771;SDS011;1901;48.172;12.824;2022-10-31T09:55:50;10.73;;;6.67;;
3771;SDS011;1901;48.172;12.824;2022-10-31T09:58:18;6.83;;;5.47;;
3771;SDS011;1901;48.172;12.824;2022-10-31T10:00:47;11.60;;;7.10;;
3771;SDS011;1901;48.172;12.824;2022-10-31T10:03:17;9.87;;;5.63;;
3771;SDS011;1901;48.172;12.824;2022-10-31T10:05:51;12.07;;;6.43;;
3771;SDS011;1901;48.172;12.824;2022-10-31T10:08:21;14.50;;;6.53;;
3771;SDS011;1901;48.172;12.824;2022-10-31T10:10:50;15.10;;;5.80;;
3771;SDS011;1901;48.172;12.824;2022-10-31T10:13:41;10.03;;;6.03;;
3771;SDS011;1901;48.172;12.824;2022-10-31T10:16:16;11.63;;;6.00;;
3771;SDS011;1901;48.172;12.824;2022-10-31T10:18:50;12.57;;;5.20;;
3771;SDS011;1901;48.172;12.824;2022-10-31T10:21:23;11.60;;;6.10;;
3771;SDS011;1901;48.172;12.824;2022-10-31T10:23:56;11.47;;;6.90;;
3771;SDS011;1901;48.172;12.824;2022-10-31T10:26:29;14.53;;;6.73;;
3771;SDS011;1901;48.172;12.824;2022-10-31T10:28:57;14.67;;;7.20;;
3771;SDS011;1901;48.172;12.824;2022-10-31T10:31:25;9.50;;;6.10;;
3771;SDS011;1901;48.172;12.824;2022-10-31T10:33:57;13.70;;;9.40;;
3771;SDS011;1901;48.172;12.824;2022-10-31T10:36:26;14.27;;;8.03;;
3771;SDS011;1901;48.172;12.824;2022-10-31T10:38:57;14.03;;;6.23;;
3771;SDS011;1901;48.172;12.824;2022-10-31T10:41:26;14.00;;;6.83;;
3771;SDS011;1901;48.172;12.824;2022-10-31T10:43:54;12.53;;;6.10;;
3771;SDS011;1901;48.172;12.824;2022-10-31T10:46:23;15.23;;;9.13;;
3771;SDS011;1901;48.172;12.824;2022-10-31T10:49:13;20.60;;;7.63;;
3771;SDS011;1901;48.172;12.824;2022-10-31T10:51:43;11.90;;;6.37;;
3771;SDS011;1901;48.172;12.824;2022-10-31T10:56:58;11.63;;;6.50;;
3771;SDS011;1901;48.172;12.824;2022-10-31T10:59:27;15.80;;;6.70;;
3771;SDS011;1901;48.172;12.824;2022-10-31T11:01:55;11.87;;;5.37;;
3771;SDS011;1901;48.172;12.824;2022-10-31T11:04:27;8.80;;;5.80;;
3771;SDS011;1901;48.172;12.824;2022-10-31T11:06:59;19.17;;;7.77;;
3771;SDS011;1901;48.172;12.824;2022-10-31T11:09:26;14.20;;;7.03;;
3771;SDS011;1901;48.172;12.824;2022-10-31T11:11:54;16.73;;;6.93;;
3771;SDS011;1901;48.172;12.824;2022-10-31T11:14:23;8.50;;;5.97;;
3771;SDS011;1901;48.172;12.824;2022-10-31T11:16:52;16.53;;;7.40;;
3771;SDS011;1901;48.172;12.824;2022-10-31T11:19:21;17.40;;;7.50;;
3771;SDS011;1901;48.172;12.824;2022-10-31T11:21:48;17.27;;;7.30;;
3771;SDS011;1901;48.172;12.824;2022-10-31T11:24:16;13.17;;;6.53;;
3771;SDS011;1901;48.172;12.824;2022-10-31T11:26:44;11.40;;;5.43;;
3771;SDS011;1901;48.172;12.824;2022-10-31T11:29:14;11.80;;;6.10;;
3771;SDS011;1901;48.172;12.824;2022-10-31T11:31:43;10.23;;;6.00;;
3771;SDS011;1901;48.172;12.824;2022-10-31T11:34:14;12.50;;;7.37;;
3771;SDS011;1901;48.172;12.824;2022-10-31T11:36:42;16.03;;;7.03;;
3771;SDS011;1901;48.172;12.824;2022-10-31T11:39:14;22.40;;;6.37;;
3771;SDS011;1901;48.172;12.824;2022-10-31T11:41:42;18.53;;;8.00;;
3771;SDS011;1901;48.172;12.824;2022-10-31T11:44:11;12.40;;;7.13;;
3771;SDS011;1901;48.172;12.824;2022-10-31T11:46:42;17.03;;;8.67;;
3771;SDS011;1901;48.172;12.824;2022-10-31T11:49:15;11.97;;;6.63;;
3771;SDS011;1901;48.172;12.824;2022-10-31T11:51:46;15.90;;;7.40;;
3771;SDS011;1901;48.172;12.824;2022-10-31T11:54:18;16.17;;;7.27;;
3771;SDS011;1901;48.172;12.824;2022-10-31T11:56:46;10.63;;;6.40;;
3771;SDS011;1901;48.172;12.824;2022-10-31T11:59:22;15.80;;;7.00;;
3771;SDS011;1901;48.172;12.824;2022-10-31T12:01:50;10.80;;;7.00;;
3771;SDS011;1901;48.172;12.824;2022-10-31T12:04:18;16.43;;;7.17;;
3771;SDS011;1901;48.172;12.824;2022-10-31T12:06:51;11.30;;;7.10;;
3771;SDS011;1901;48.172;12.824;2022-10-31T12:09:20;13.80;;;6.47;;
3771;SDS011;1901;48.172;12.824;2022-10-31T12:11:51;11.43;;;7.80;;
3771;SDS011;1901;48.172;12.824;2022-10-31T12:14:23;13.73;;;8.13;;
3771;SDS011;1901;48.172;12.824;2022-10-31T12:16:54;12.93;;;7.70;;
3771;SDS011;1901;48.172;12.824;2022-10-31T12:19:27;14.27;;;7.70;;
3771;SDS011;1901;48.172;12.824;2022-10-31T12:22:05;13.53;;;7.60;;
3771;SDS011;1901;48.172;12.824;2022-10-31T12:24:41;13.70;;;6.50;;
3771;SDS011;1901;48.172;12.824;2022-10-31T12:27:15;12.30;;;7.53;;
3771;SDS011;1901;48.172;12.824;2022-10-31T12:29:54;12.00;;;7.30;;
3771;SDS011;1901;48.172;12.824;2022-10-31T12:32:27;16.53;;;7.77;;
3771;SDS011;1901;48.172;12.824;2022-10-31T12:35:01;10.03;;;7.20;;
3771;SDS011;1901;48.172;12.824;2022-10-31T12:37:33;18.47;;;8.20;;
3771;SDS011;1901;48.172;12.824;2022-10-31T12:40:07;15.10;;;8.43;;
3771;SDS011;1901;48.172;12.824;2022-10-31T12:42:42;16.17;;;7.53;;
3771;SDS011;1901;48.172;12.824;2022-10-31T12:45:18;12.77;;;7.57;;
3771;SDS011;1901;48.172;12.824;2022-10-31T12:50:39;18.17;;;6.90;;
3771;SDS011;1901;48.172;12.824;2022-10-31T12:53:14;15.20;;;7.40;;
3771;SDS011;1901;48.172;12.824;2022-10-31T12:55:45;15.40;;;7.30;;
3771;SDS011;1901;48.172;12.824;2022-10-31T12:58:17;13.27;;;7.23;;
3771;SDS011;1901;48.172;12.824;2022-10-31T13:00:48;17.57;;;7.97;;
3771;SDS011;1901;48.172;12.824;2022-10-31T13:03:21;14.43;;;7.40;;
3771;SDS011;1901;48.172;12.824;2022-10-31T13:05:53;19.00;;;7.47;;
3771;SDS011;1901;48.172;12.824;2022-10-31T13:08:22;12.83;;;6.70;;
3771;SDS011;1901;48.172;12.824;2022-10-31T13:10:52;17.40;;;7.63;;
3771;SDS011;1901;48.172;12.824;2022-10-31T13:13:26;18.23;;;7.00;;
3771;SDS011;1901;48.172;12.824;2022-10-31T13:15:55;13.03;;;7.37;;
3771;SDS011;1901;48.172;12.824;2022-10-31T13:18:25;13.03;;;6.60;;
3771;SDS011;1901;48.172;12.824;2022-10-31T13:20:56;13.43;;;7.13;;
3771;SDS011;1901;48.172;12.824;2022-10-31T13:23:26;19.30;;;7.47;;
3771;SDS011;1901;48.172;12.824;2022-10-31T13:25:55;17.13;;;6.13;;
3771;SDS011;1901;48.172;12.824;2022-10-31T13:28:24;13.23;;;7.03;;
3771;SDS011;1901;48.172;12.824;2022-10-31T13:30:53;16.83;;;7.40;;
3771;SDS011;1901;48.172;12.824;2022-10-31T13:33:21;15.67;;;8.13;;
3771;SDS011;1901;48.172;12.824;2022-10-31T13:35:51;16.07;;;8.40;;
3771;SDS011;1901;48.172;12.824;2022-10-31T13:38:21;13.90;;;8.00;;
3771;SDS011;1901;48.172;12.824;2022-10-31T13:40:51;12.47;;;9.00;;
3771;SDS011;1901;48.172;12.824;2022-10-31T13:43:27;20.60;;;9.20;;
3771;SDS011;1901;48.172;12.824;2022-10-31T13:45:55;16.00;;;10.73;;
3771;SDS011;1901;48.172;12.824;2022-10-31T13:48:36;18.40;;;8.77;;
3771;SDS011;1901;48.172;12.824;2022-10-31T13:51:06;19.80;;;9.47;;
3771;SDS011;1901;48.172;12.824;2022-10-31T13:53:36;19.67;;;9.10;;
3771;SDS011;1901;48.172;12.824;2022-10-31T13:56:09;19.67;;;9.73;;
3771;SDS011;1901;48.172;12.824;2022-10-31T13:58:40;16.17;;;9.53;;
3771;SDS011;1901;48.172;12.824;2022-10-31T14:01:15;16.57;;;8.90;;
3771;SDS011;1901;48.172;12.824;2022-10-31T14:03:45;13.77;;;8.07;;
3771;SDS011;1901;48.172;12.824;2022-10-31T14:06:13;16.47;;;8.40;;
3771;SDS011;1901;48.172;12.824;2022-10-31T14:08:49;13.40;;;8.40;;
3771;SDS011;1901;48.172;12.824;2022-10-31T14:11:19;12.67;;;8.60;;
3771;SDS011;1901;48.172;12.824;2022-10-31T14:13:48;22.60;;;9.83;;
3771;SDS011;1901;48.172;12.824;2022-10-31T14:16:18;21.63;;;11.40;;
3771;SDS011;1901;48.172;12.824;2022-10-31T14:18:47;22.13;;;10.67;;
3771;SDS011;1901;48.172;12.824;2022-10-31T14:21:15;21.67;;;10.33;;
3771;SDS011;1901;48.172;12.824;2022-10-31T14:23:44;15.87;;;9.30;;
3771;SDS011;1901;48.172;12.824;2022-10-31T14:26:17;21.40;;;10.20;;
3771;SDS011;1901;48.172;12.824;2022-10-31T14:28:44;20.70;;;11.30;;
3771;SDS011;1901;48.172;12.824;2022-10-31T14:31:29;20.57;;;10.30;;
3771;SDS011;1901;48.172;12.824;2022-10-31T14:33:59;21.37;;;12.80;;
3771;SDS011;1901;48.172;12.824;2022-10-31T14:36:30;23.70;;;11.33;;
3771;SDS011;1901;48.172;12.824;2022-10-31T14:39:04;16.73;;;11.90;;
3771;SDS011;1901;48.172;12.824;2022-10-31T14:41:38;24.73;;;12.00;;
3771;SDS011;1901;48.172;12.824;2022-10-31T14:44:16;22.13;;;10.77;;
3771;SDS011;1901;48.172;12.824;2022-10-31T14:46:49;23.30;;;12.63;;
3771;SDS011;1901;48.172;12.824;2022-10-31T14:49:23;22.07;;;11.53;;
3771;SDS011;1901;48.172;12.824;2022-10-31T14:51:53;19.93;;;12.07;;
3771;SDS011;1901;48.172;12.824;2022-10-31T14:54:27;24.40;;;12.40;;
3771;SDS011;1901;48.172;12.824;2022-10-31T14:56:56;21.67;;;12.60;;
3771;SDS011;1901;48.172;12.824;2022-10-31T14:59:26;21.27;;;12.87;;
3771;SDS011;1901;48.172;12.824;2022-10-31T15:01:56;24.53;;;14.50;;
3771;SDS011;1901;48.172;12.824;2022-10-31T15:04:25;21.40;;;13.20;;
3771;SDS011;1901;48.172;12.824;2022-10-31T15:06:54;25.93;;;13.57;;
3771;SDS011;1901;48.172;12.824;2022-10-31T15:09:26;17.77;;;12.60;;